CCE2 weather

Mount Pleasant Airport
Mount Pleasant, Prince Edward Island, Canada

Public forecast

Using degrees Celsius for public forecast. Weather courtesy of forecast.io.

Closest aviation weather report (METAR) to Mount Pleasant Airport

Closest report is Greater Moncton Roméo LeBlanc International Airport, 40.6 nm (75.2 km) SW. Retrieved 2020/07/14 03:41 UTC (0 seconds ago):

CYQM 140341Z 03012G17KT 14SM FEW005 SCT030 OVC100 19/18 A2981 RMK SF1SC2AC5 SLP095 DENSITY ALT 1000FT

Closest aviation forecast (TAF) to Mount Pleasant Airport

Closest forecast is Greater Moncton Roméo LeBlanc International Airport, 40.6 nm (75.2 km) SW. Retrieved 2020-07-14 00:40 UTC (3 hours ago):

TAF CYQM 132338Z 1400/1424 24008KT P6SM BKN050 TEMPO 1400/1406 4SM -SHRA BR OVC020 BECMG 1402/1404 03010G20KT FM140600 04010G20KT 4SM -RA BR OVC020 FM141000 03010G20KT 2SM -RA -DZ BR OVC007 FM141400 04012G22KT 4SM -RA BR OVC012 FM142300 04012G22KT 2SM -RA -DZ BR OVC005 RMK NXT FCST BY 140600Z